Terminal Aerodrome Forecast
Issued by NWS

Home | Current Version | Previous Version | Text Only | Print | Product List | Glossary On
Versions: 1 2 3 4 5 6 7 8 9 10 11 12 13 14 15 16 17 18 19 20 21 22 23
000
FTAK31 PAJN 231800 AAA
TAFAWG
TAF AMD
PAWG 231837Z 2319/2418 VRB05KT 4SM BR SCT002 BKN050
      TEMPO 2319/2320 1SM BR BKN005 BKN030
     FM232000 32005KT P6SM VCFG OVC150
     FM240100 32007KT P6SM OVC015
     FM241200 VRB05KT 5SM BR OVC100 PROB30 2412/2416 -RA
      AMD LTD TO CLD VIS AND WIND 2406/2415=

USA.gov is the U.S. government's official web portal to all federal, state and local government web resources and services.